createdAt,value
2017-11-17T00:01:09.643Z,75.73
2017-11-17T00:03:39.456Z,75.82
2017-11-17T00:06:08.554Z,75.69
2017-11-17T00:08:37.609Z,75.78
2017-11-17T00:11:05.910Z,75.66
2017-11-17T00:13:34.231Z,75.35
2017-11-17T00:16:02.584Z,75.41
2017-11-17T00:18:30.880Z,75.23
2017-11-17T00:20:59.194Z,75.04
2017-11-17T00:23:28.263Z,74.75
2017-11-17T00:25:57.338Z,74.59
2017-11-17T00:28:25.646Z,74.34
2017-11-17T00:30:53.994Z,74.40
2017-11-17T00:33:22.290Z,74.37
2017-11-17T00:35:50.608Z,74.44
2017-11-17T00:38:19.671Z,74.18
2017-11-17T00:40:48.004Z,74.39
2017-11-17T00:43:17.078Z,74.39
2017-11-17T00:45:45.410Z,74.58
2017-11-17T00:48:13.707Z,74.85
2017-11-17T00:50:42.100Z,75.37
2017-11-17T00:53:10.411Z,75.16
2017-11-17T00:55:38.713Z,75.58
2017-11-17T00:58:07.029Z,75.72
2017-11-17T01:00:35.329Z,75.52
2017-11-17T01:03:03.666Z,75.39
2017-11-17T01:05:31.979Z,75.47
2017-11-17T01:08:00.305Z,75.21
2017-11-17T01:10:29.375Z,74.84
2017-11-17T01:12:58.454Z,74.77
2017-11-17T01:15:26.761Z,74.72
2017-11-17T01:17:55.853Z,74.61
2017-11-17T01:20:24.176Z,74.47
2017-11-17T01:22:53.237Z,74.53
2017-11-17T01:25:21.567Z,74.81
2017-11-17T01:27:50.656Z,75.02
2017-11-17T01:30:19.715Z,74.93
2017-11-17T01:32:48.095Z,75.32
2017-11-17T01:35:16.399Z,75.24
2017-11-17T01:37:45.490Z,75.31
2017-11-17T01:40:14.566Z,75.46
2017-11-17T01:42:42.864Z,75.46
2017-11-17T01:45:11.162Z,75.64
2017-11-17T01:47:39.477Z,75.83
2017-11-17T01:50:07.809Z,76.03
2017-11-17T01:52:36.881Z,76.25
2017-11-17T01:55:05.199Z,76.34
2017-11-17T01:57:33.562Z,76.35
2017-11-17T02:00:01.879Z,76.73
2017-11-17T02:02:30.943Z,76.86
2017-11-17T02:04:59.257Z,76.92
2017-11-17T02:07:27.574Z,77.06
2017-11-17T02:09:55.870Z,77.17
2017-11-17T02:12:24.196Z,77.26
2017-11-17T02:14:52.511Z,77.33
2017-11-17T02:17:20.848Z,77.65
2017-11-17T02:19:49.936Z,77.93
2017-11-17T02:22:18.260Z,77.89
2017-11-17T02:24:47.345Z,77.60
2017-11-17T02:27:16.410Z,77.40
2017-11-17T02:29:44.707Z,77.53
2017-11-17T02:32:13.080Z,77.71
2017-11-17T02:34:41.456Z,78.01
2017-11-17T02:37:09.761Z,78.22
2017-11-17T02:39:38.063Z,78.15
2017-11-17T02:42:07.132Z,78.38
2017-11-17T02:44:36.231Z,78.19
2017-11-17T02:47:05.308Z,78.54
2017-11-17T02:49:33.606Z,78.70
2017-11-17T02:52:02.672Z,78.82
2017-11-17T02:54:30.977Z,78.74
2017-11-17T02:56:59.362Z,78.47
2017-11-17T02:59:27.756Z,78.55
2017-11-17T03:01:56.053Z,78.79
2017-11-17T03:04:24.362Z,79.09
2017-11-17T03:06:52.762Z,79.14
2017-11-17T03:09:21.067Z,78.89
2017-11-17T03:11:49.353Z,79.15
2017-11-17T03:14:17.648Z,79.22
2017-11-17T03:16:46.022Z,79.51
2017-11-17T03:19:14.343Z,79.58
2017-11-17T03:21:43.836Z,79.82
2017-11-17T03:24:13.748Z,80.13
2017-11-17T03:26:42.070Z,80.16
2017-11-17T03:29:10.372Z,80.34
2017-11-17T03:31:38.673Z,80.70
2017-11-17T03:34:07.019Z,80.97
2017-11-17T03:36:35.322Z,81.01
2017-11-17T03:39:03.769Z,81.08
2017-11-17T03:41:32.856Z,81.25
2017-11-17T03:44:01.932Z,81.48
2017-11-17T03:46:30.244Z,81.64
2017-11-17T03:48:59.409Z,81.88
2017-11-17T03:51:28.533Z,81.87
2017-11-17T03:53:57.601Z,82.02
2017-11-17T03:56:25.928Z,82.05
2017-11-17T03:58:55.006Z,82.10
2017-11-17T04:01:23.311Z,82.30
2017-11-17T04:03:52.408Z,82.45
2017-11-17T04:06:20.736Z,82.49
2017-11-17T04:08:49.136Z,82.40
2017-11-17T04:11:17.435Z,82.30
2017-11-17T04:13:45.793Z,82.32
2017-11-17T04:16:14.203Z,82.40
2017-11-17T04:18:42.517Z,82.40
2017-11-17T04:21:10.838Z,82.50
2017-11-17T04:23:39.159Z,82.58
2017-11-17T04:26:08.242Z,82.58
2017-11-17T04:28:38.138Z,82.62
2017-11-17T04:31:06.533Z,82.69
2017-11-17T04:33:34.821Z,82.67
2017-11-17T04:36:03.923Z,82.68
2017-11-17T04:38:32.407Z,82.79
2017-11-17T04:41:00.793Z,82.89
2017-11-17T04:43:29.253Z,82.87
2017-11-17T04:45:57.572Z,82.84
2017-11-17T04:48:25.872Z,82.79
2017-11-17T04:50:54.190Z,82.79
2017-11-17T04:53:22.493Z,82.93
2017-11-17T04:55:50.807Z,83.07
2017-11-17T04:58:19.890Z,83.17
2017-11-17T05:00:48.217Z,83.33
2017-11-17T05:03:16.519Z,83.30
2017-11-17T05:05:44.839Z,83.24
2017-11-17T05:08:13.158Z,83.27
2017-11-17T05:10:41.459Z,83.35
2017-11-17T05:13:09.773Z,83.55
2017-11-17T05:15:38.841Z,83.65
2017-11-17T05:18:07.183Z,83.81
2017-11-17T05:20:36.249Z,83.94
2017-11-17T05:23:05.353Z,84.06
2017-11-17T05:25:33.659Z,84.18
2017-11-17T05:28:02.740Z,84.16
2017-11-17T05:30:31.062Z,84.26
2017-11-17T05:32:59.392Z,84.27
2017-11-17T05:35:27.764Z,84.32
2017-11-17T05:37:56.080Z,84.43
2017-11-17T05:40:25.148Z,84.47
2017-11-17T05:42:54.256Z,84.55
2017-11-17T05:45:22.603Z,84.63
2017-11-17T05:47:50.900Z,84.81
2017-11-17T05:50:19.275Z,84.84
2017-11-17T05:52:47.689Z,84.91
2017-11-17T05:55:17.524Z,84.99
2017-11-17T05:57:46.596Z,84.98
2017-11-17T06:00:14.888Z,84.92
2017-11-17T06:02:44.827Z,84.96
2017-11-17T06:05:13.993Z,85.05
2017-11-17T06:07:42.382Z,85.10
2017-11-17T06:10:10.765Z,85.18
2017-11-17T06:12:39.102Z,85.18
2017-11-17T06:15:07.414Z,85.21
2017-11-17T06:17:35.718Z,85.28
2017-11-17T06:20:05.569Z,85.18
2017-11-17T06:22:33.880Z,85.18
2017-11-17T06:25:02.194Z,85.31
2017-11-17T06:27:30.501Z,85.30
2017-11-17T06:29:59.640Z,85.17
2017-11-17T06:32:27.960Z,85.13
2017-11-17T06:34:57.055Z,85.06
2017-11-17T06:37:25.364Z,85.01
2017-11-17T06:39:54.431Z,85.04
2017-11-17T06:42:22.814Z,85.06
2017-11-17T06:44:51.203Z,85.04
2017-11-17T06:47:21.025Z,84.91
2017-11-17T06:49:49.327Z,84.83
2017-11-17T06:52:18.402Z,84.61
2017-11-17T06:54:46.703Z,84.58
2017-11-17T06:57:15.765Z,84.72
2017-11-17T06:59:44.900Z,84.83
2017-11-17T07:02:13.980Z,84.83
2017-11-17T07:04:42.316Z,84.91
2017-11-17T07:07:10.613Z,84.92
2017-11-17T07:09:39.023Z,84.95
2017-11-17T07:12:07.349Z,84.96
2017-11-17T07:14:35.660Z,84.96
2017-11-17T07:17:03.978Z,84.95
2017-11-17T07:19:32.285Z,84.84
2017-11-17T07:22:01.363Z,84.79
2017-11-17T07:24:29.711Z,84.74
2017-11-17T07:26:58.056Z,84.84
2017-11-17T07:29:26.362Z,84.84
2017-11-17T07:31:54.672Z,84.87
2017-11-17T07:34:22.977Z,84.85
2017-11-17T07:39:25.848Z,84.91
2017-11-17T07:41:54.143Z,84.94
2017-11-17T07:44:22.527Z,84.93
2017-11-17T07:46:51.015Z,84.90
2017-11-17T07:49:19.391Z,84.84
2017-11-17T07:51:48.482Z,84.67
2017-11-17T07:54:16.903Z,84.64
2017-11-17T07:56:45.985Z,84.66
2017-11-17T07:59:15.889Z,84.70
2017-11-17T08:01:44.204Z,84.64
2017-11-17T08:04:13.266Z,84.60
2017-11-17T08:06:41.565Z,84.67
2017-11-17T08:09:10.741Z,84.65
2017-11-17T08:11:39.061Z,84.54
2017-11-17T08:14:08.201Z,84.48
2017-11-17T08:16:36.506Z,84.46
2017-11-17T08:19:04.829Z,84.30
2017-11-17T08:21:34.013Z,84.22
2017-11-17T08:24:02.338Z,84.28
2017-11-17T08:26:30.652Z,84.32
2017-11-17T08:28:58.959Z,84.28
2017-11-17T08:31:27.278Z,84.21
2017-11-17T08:33:55.572Z,83.96
2017-11-17T08:36:23.888Z,83.82
2017-11-17T08:38:53.714Z,83.61
2017-11-17T08:41:22.028Z,83.31
2017-11-17T08:43:51.099Z,83.01
2017-11-17T08:46:20.206Z,82.80
2017-11-17T08:48:48.518Z,82.64
2017-11-17T08:51:16.834Z,82.31
2017-11-17T08:53:45.154Z,82.20
2017-11-17T08:56:13.469Z,82.24
2017-11-17T08:58:41.791Z,82.24
2017-11-17T09:01:10.295Z,82.04
2017-11-17T09:03:39.418Z,81.82
2017-11-17T09:06:08.497Z,81.63
2017-11-17T09:08:36.825Z,81.30
2017-11-17T09:11:05.681Z,81.22
2017-11-17T09:13:34.367Z,81.15
2017-11-17T09:16:02.670Z,80.98
2017-11-17T09:18:31.740Z,80.91
2017-11-17T09:21:00.854Z,80.53
2017-11-17T09:23:29.152Z,79.84
2017-11-17T09:25:58.238Z,79.14
2017-11-17T09:28:27.311Z,78.46
2017-11-17T09:30:55.648Z,77.45
2017-11-17T09:33:24.142Z,76.41
2017-11-17T09:35:52.488Z,75.61
2017-11-17T09:38:21.577Z,75.65
2017-11-17T09:40:49.934Z,74.83
2017-11-17T09:43:18.246Z,72.24
2017-11-17T09:45:46.597Z,70.27
2017-11-17T09:48:14.993Z,68.36
2017-11-17T09:50:43.369Z,67.65
2017-11-17T09:53:11.768Z,67.35
2017-11-17T09:55:40.081Z,66.49
2017-11-17T09:58:08.407Z,65.35
2017-11-17T10:00:36.719Z,64.46
2017-11-17T10:03:05.028Z,64.73
2017-11-17T10:05:33.352Z,64.50
2017-11-17T10:08:02.073Z,64.46
2017-11-17T10:10:30.471Z,63.82
2017-11-17T10:12:59.553Z,63.12
2017-11-17T10:15:28.093Z,62.97
2017-11-17T10:17:56.394Z,63.59
2017-11-17T10:20:24.753Z,63.09
2017-11-17T10:22:53.066Z,63.10
2017-11-17T10:25:22.141Z,62.80
2017-11-17T10:27:50.445Z,62.01
2017-11-17T10:30:18.868Z,61.75
2017-11-17T10:32:48.045Z,61.50
2017-11-17T10:35:16.377Z,61.14
2017-11-17T10:37:44.689Z,60.34
2017-11-17T10:40:12.981Z,60.63
2017-11-17T10:42:41.293Z,60.98
2017-11-17T10:45:10.399Z,60.54
2017-11-17T10:47:39.478Z,59.88
2017-11-17T10:50:07.808Z,59.60
2017-11-17T10:52:36.115Z,60.18
2017-11-17T10:55:04.443Z,59.12
2017-11-17T10:57:33.529Z,58.68
2017-11-17T11:00:02.636Z,58.32
2017-11-17T11:02:31.724Z,57.94
2017-11-17T11:05:00.806Z,56.52
2017-11-17T11:07:30.661Z,55.99
2017-11-17T11:09:59.824Z,58.00
2017-11-17T11:12:28.155Z,56.97
2017-11-17T11:14:56.546Z,57.21
2017-11-17T11:17:24.848Z,56.88
2017-11-17T11:19:53.197Z,55.95
2017-11-17T11:22:21.506Z,56.03
2017-11-17T11:24:49.814Z,56.03
2017-11-17T11:27:18.198Z,56.44
2017-11-17T11:29:46.522Z,55.94
2017-11-17T11:32:14.836Z,55.82
2017-11-17T11:34:43.174Z,56.04
2017-11-17T11:37:12.338Z,54.95
2017-11-17T11:39:40.661Z,54.00
2017-11-17T11:42:09.750Z,54.09
2017-11-17T11:44:38.859Z,54.34
2017-11-17T11:47:07.181Z,53.87
2017-11-17T11:49:35.584Z,53.53
2017-11-17T11:52:03.960Z,52.76
2017-11-17T11:54:32.271Z,52.32
2017-11-17T11:57:00.587Z,52.34
2017-11-17T11:59:28.916Z,53.16
2017-11-17T12:01:57.230Z,52.31
2017-11-17T12:04:26.303Z,53.13
2017-11-17T12:06:54.606Z,54.40
2017-11-17T12:09:23.707Z,54.49
2017-11-17T12:11:52.104Z,54.77
2017-11-17T12:14:21.260Z,54.24
2017-11-17T12:16:49.601Z,54.42
2017-11-17T12:19:17.924Z,55.21
2017-11-17T12:21:46.246Z,55.60
2017-11-17T12:24:15.325Z,55.83
2017-11-17T12:26:44.412Z,56.25
2017-11-17T12:29:12.894Z,57.09
2017-11-17T12:31:41.208Z,57.50
2017-11-17T12:34:10.292Z,56.97
2017-11-17T12:36:38.650Z,57.18
2017-11-17T12:39:07.036Z,56.80
2017-11-17T12:41:35.336Z,57.18
2017-11-17T12:44:03.640Z,57.04
2017-11-17T12:46:32.717Z,57.48
2017-11-17T12:49:01.060Z,57.57
2017-11-17T12:51:29.372Z,59.16
2017-11-17T12:53:57.682Z,58.35
2017-11-17T12:56:26.774Z,58.29
2017-11-17T12:58:55.944Z,58.88
2017-11-17T13:01:24.277Z,58.82
2017-11-17T13:03:52.597Z,56.76
2017-11-17T13:06:21.491Z,57.64
2017-11-17T13:08:49.807Z,56.91
2017-11-17T13:11:18.865Z,56.44
2017-11-17T13:13:47.163Z,57.71
2017-11-17T13:16:15.465Z,57.54
2017-11-17T13:18:43.806Z,57.81
2017-11-17T13:21:12.127Z,56.55
2017-11-17T13:23:40.439Z,57.25
2017-11-17T13:26:08.758Z,57.22
2017-11-17T13:28:37.196Z,57.88
2017-11-17T13:31:06.291Z,57.86
2017-11-17T13:33:35.393Z,57.54
2017-11-17T13:36:04.516Z,57.27
2017-11-17T13:38:32.853Z,57.04
2017-11-17T13:41:01.171Z,57.04
2017-11-17T13:43:29.479Z,56.83
2017-11-17T13:45:57.845Z,56.92
2017-11-17T13:48:26.269Z,55.94
2017-11-17T13:50:54.650Z,55.86
2017-11-17T13:53:23.019Z,55.23
2017-11-17T13:55:51.331Z,55.96
2017-11-17T13:58:19.675Z,56.01
2017-11-17T14:00:48.069Z,55.98
2017-11-17T14:03:16.494Z,55.50
2017-11-17T14:05:45.576Z,55.05
2017-11-17T14:08:13.904Z,54.43
2017-11-17T14:10:42.249Z,54.21
2017-11-17T14:13:10.564Z,53.42
2017-11-17T14:15:38.885Z,53.09
2017-11-17T14:18:07.335Z,53.50
2017-11-17T14:20:35.638Z,53.91
2017-11-17T14:23:03.941Z,54.12
2017-11-17T14:25:32.252Z,54.55
2017-11-17T14:28:01.346Z,55.28
2017-11-17T14:30:30.409Z,55.35
2017-11-17T14:32:58.749Z,55.00
2017-11-17T14:35:27.070Z,55.53
2017-11-17T14:37:55.385Z,56.15
2017-11-17T14:40:24.465Z,55.56
2017-11-17T14:42:52.766Z,55.62
2017-11-17T14:45:21.871Z,56.31
2017-11-17T14:47:50.960Z,56.31
2017-11-17T14:50:19.285Z,56.12
2017-11-17T14:52:47.701Z,56.31
2017-11-17T14:55:16.017Z,56.32
2017-11-17T14:57:45.101Z,56.67
2017-11-17T15:00:13.418Z,57.00
2017-11-17T15:02:41.755Z,57.32
2017-11-17T15:05:10.079Z,57.34
2017-11-17T15:07:39.212Z,57.62
2017-11-17T15:10:07.537Z,57.34
2017-11-17T15:12:35.873Z,58.23
2017-11-17T15:15:04.189Z,58.25
2017-11-17T15:17:32.688Z,58.55
2017-11-17T15:20:01.027Z,58.68
2017-11-17T15:22:29.343Z,59.07
2017-11-17T15:24:57.858Z,61.79
2017-11-17T15:27:26.943Z,63.32
2017-11-17T15:29:56.183Z,63.45
2017-11-17T15:32:24.495Z,63.94
2017-11-17T15:34:52.804Z,64.65
2017-11-17T15:37:21.199Z,64.81
2017-11-17T15:39:50.278Z,64.18
2017-11-17T15:42:18.623Z,63.50
2017-11-17T15:44:46.933Z,64.12
2017-11-17T15:47:15.248Z,63.46
2017-11-17T15:49:44.403Z,63.33
2017-11-17T15:52:12.799Z,64.19
2017-11-17T15:54:41.330Z,63.85
2017-11-17T15:57:09.827Z,63.95
2017-11-17T15:59:38.137Z,63.93
2017-11-17T16:02:06.514Z,64.13
2017-11-17T16:04:34.834Z,64.40
2017-11-17T16:07:03.275Z,65.97
2017-11-17T16:09:31.584Z,65.91
2017-11-17T16:12:00.675Z,65.80
2017-11-17T16:14:28.999Z,65.69
2017-11-17T16:16:58.087Z,66.00
2017-11-17T16:19:27.285Z,66.21
2017-11-17T16:21:55.592Z,66.34
2017-11-17T16:24:23.901Z,66.07
2017-11-17T16:26:52.187Z,65.95
2017-11-17T16:29:20.522Z,65.97
2017-11-17T16:31:49.613Z,65.91
2017-11-17T16:34:18.707Z,65.81
2017-11-17T16:36:47.062Z,65.89
2017-11-17T16:39:15.390Z,65.75
2017-11-17T16:41:44.614Z,66.30
2017-11-17T16:44:12.937Z,66.59
2017-11-17T16:46:41.246Z,66.58
2017-11-17T16:49:10.426Z,66.55
2017-11-17T16:51:39.501Z,66.83
2017-11-17T16:54:07.899Z,67.11
2017-11-17T16:56:36.198Z,67.23
2017-11-17T16:59:05.256Z,67.01
2017-11-17T17:01:33.716Z,66.99
2017-11-17T17:04:02.792Z,67.09
2017-11-17T17:06:31.966Z,67.12
2017-11-17T17:09:00.429Z,66.92
2017-11-17T17:11:28.738Z,66.72
2017-11-17T17:13:57.060Z,66.82
2017-11-17T17:16:25.375Z,66.68
2017-11-17T17:21:22.123Z,67.12
2017-11-17T17:23:50.428Z,67.33
2017-11-17T17:26:18.733Z,67.32
2017-11-17T17:28:48.527Z,67.56
2017-11-17T17:31:16.836Z,67.88
2017-11-17T17:33:45.258Z,67.91
2017-11-17T17:36:13.607Z,67.61
2017-11-17T17:38:41.885Z,67.73
2017-11-17T17:41:10.238Z,68.05
2017-11-17T17:43:38.550Z,68.27
2017-11-17T17:46:07.618Z,68.26
2017-11-17T17:48:35.935Z,68.41
2017-11-17T17:51:04.235Z,68.63
2017-11-17T17:53:33.311Z,68.80
2017-11-17T17:56:01.735Z,69.10
2017-11-17T17:58:30.038Z,69.25
2017-11-17T18:00:58.386Z,69.48
2017-11-17T18:03:26.727Z,69.60
2017-11-17T18:05:55.252Z,69.35
2017-11-17T18:08:24.402Z,69.38
2017-11-17T18:10:52.697Z,69.52
2017-11-17T18:13:21.009Z,69.48
2017-11-17T18:15:50.077Z,69.40
2017-11-17T18:18:18.480Z,69.29
2017-11-17T18:20:47.553Z,69.44
2017-11-17T18:23:15.867Z,69.44
2017-11-17T18:25:44.998Z,69.52
2017-11-17T18:28:14.303Z,69.24
2017-11-17T18:30:42.632Z,68.86
2017-11-17T18:33:11.782Z,68.89
2017-11-17T18:35:41.041Z,68.93
2017-11-17T18:38:09.412Z,69.24
2017-11-17T18:40:37.758Z,69.03
2017-11-17T18:43:06.044Z,68.82
2017-11-17T18:45:34.373Z,68.89
2017-11-17T18:48:02.661Z,68.98
2017-11-17T18:50:30.965Z,69.29
2017-11-17T18:52:59.333Z,68.82
2017-11-17T18:55:27.611Z,68.91
2017-11-17T18:57:56.682Z,68.92
2017-11-17T19:00:25.027Z,69.19
2017-11-17T19:02:54.076Z,69.26
2017-11-17T19:05:22.394Z,69.29
2017-11-17T19:07:50.792Z,69.20
2017-11-17T19:10:19.112Z,69.10
2017-11-17T19:12:47.465Z,69.07
2017-11-17T19:15:15.751Z,69.40
2017-11-17T19:17:44.058Z,69.75
2017-11-17T19:20:12.482Z,70.04
2017-11-17T19:22:41.558Z,69.75
2017-11-17T19:25:09.864Z,69.91
2017-11-17T19:27:39.100Z,69.76
2017-11-17T19:30:07.448Z,69.52
2017-11-17T19:32:36.524Z,69.44
2017-11-17T19:35:05.754Z,69.79
2017-11-17T19:37:34.049Z,69.69
2017-11-17T19:40:02.346Z,69.55
2017-11-17T19:42:30.735Z,69.46
2017-11-17T19:44:59.038Z,69.44
2017-11-17T19:47:28.869Z,69.79
2017-11-17T19:49:57.183Z,69.94
2017-11-17T19:52:25.499Z,69.84
2017-11-17T19:54:53.813Z,70.04
2017-11-17T19:57:22.120Z,70.19
2017-11-17T19:59:50.431Z,70.42
2017-11-17T20:02:18.884Z,70.78
2017-11-17T20:04:47.960Z,70.69
2017-11-17T20:07:16.271Z,70.65
2017-11-17T20:09:45.083Z,70.57
2017-11-17T20:12:13.401Z,70.46
2017-11-17T20:14:41.705Z,70.85
2017-11-17T20:17:10.776Z,70.57
2017-11-17T20:19:39.095Z,70.09
2017-11-17T20:22:08.260Z,70.06
2017-11-17T20:24:36.569Z,69.91
2017-11-17T20:27:05.644Z,69.77
2017-11-17T20:29:34.714Z,69.63
2017-11-17T20:32:03.020Z,69.71
2017-11-17T20:34:31.346Z,69.56
2017-11-17T20:37:00.443Z,69.51
2017-11-17T20:39:29.599Z,69.79
2017-11-17T20:41:57.897Z,69.50
2017-11-17T20:44:27.136Z,69.29
2017-11-17T20:46:55.468Z,69.09
2017-11-17T20:49:23.780Z,69.00
2017-11-17T20:51:53.695Z,68.69
2017-11-17T20:54:22.868Z,68.68
2017-11-17T20:56:51.352Z,68.75
2017-11-17T20:59:19.664Z,68.96
2017-11-17T21:01:48.736Z,68.57
2017-11-17T21:04:17.048Z,68.57
2017-11-17T21:06:46.109Z,68.25
2017-11-17T21:09:14.463Z,68.12
2017-11-17T21:11:42.779Z,68.19
2017-11-17T21:14:11.094Z,68.15
2017-11-17T21:16:40.163Z,68.32
2017-11-17T21:19:08.476Z,68.50
2017-11-17T21:21:37.538Z,68.55
2017-11-17T21:24:05.835Z,68.38
2017-11-17T21:26:34.196Z,68.21
2017-11-17T21:29:02.510Z,68.08
2017-11-17T21:31:30.824Z,67.97
2017-11-17T21:33:59.211Z,67.98
2017-11-17T21:36:27.631Z,67.92
2017-11-17T21:38:55.929Z,68.18
2017-11-17T21:41:24.240Z,68.01
2017-11-17T21:43:53.922Z,68.22
2017-11-17T21:46:22.255Z,68.14
2017-11-17T21:48:50.703Z,68.19
2017-11-17T21:51:19.760Z,68.20
2017-11-17T21:53:48.081Z,68.02
2017-11-17T21:56:16.440Z,68.02
2017-11-17T21:58:44.816Z,68.05
2017-11-17T22:01:13.147Z,68.09
2017-11-17T22:03:41.455Z,68.09
2017-11-17T22:06:09.780Z,68.13
2017-11-17T22:08:38.169Z,68.19
2017-11-17T22:11:06.539Z,68.08
2017-11-17T22:13:34.873Z,68.28
2017-11-17T22:16:03.180Z,68.34
2017-11-17T22:18:31.482Z,68.27
2017-11-17T22:20:59.803Z,68.35
2017-11-17T22:23:28.905Z,68.42
2017-11-17T22:25:57.306Z,68.39
2017-11-17T22:28:25.735Z,68.08
2017-11-17T22:30:54.068Z,67.83
2017-11-17T22:33:22.371Z,67.88
2017-11-17T22:35:50.717Z,67.69
2017-11-17T22:38:19.121Z,67.74
2017-11-17T22:40:47.432Z,67.29
2017-11-17T22:43:15.753Z,67.31
2017-11-17T22:45:44.282Z,67.00
2017-11-17T22:48:12.601Z,67.18
2017-11-17T22:50:40.971Z,66.99
2017-11-17T22:53:09.309Z,66.55
2017-11-17T22:55:37.626Z,66.29
2017-11-17T22:58:05.919Z,65.94
2017-11-17T23:00:34.237Z,65.81
2017-11-17T23:03:02.586Z,65.73
2017-11-17T23:05:30.888Z,65.68
2017-11-17T23:08:00.128Z,65.55
2017-11-17T23:10:28.514Z,65.80
2017-11-17T23:12:56.818Z,65.87
2017-11-17T23:15:25.341Z,65.79
2017-11-17T23:17:54.407Z,65.53
2017-11-17T23:20:22.710Z,64.94
2017-11-17T23:22:51.016Z,64.36
2017-11-17T23:25:20.115Z,64.12
2017-11-17T23:27:49.191Z,63.91
2017-11-17T23:30:19.053Z,63.90
2017-11-17T23:32:47.375Z,64.43
2017-11-17T23:35:15.689Z,63.94
2017-11-17T23:37:44.789Z,63.47
2017-11-17T23:40:13.979Z,62.65
2017-11-17T23:42:42.314Z,62.76
2017-11-17T23:45:10.786Z,62.65
2017-11-17T23:47:39.108Z,62.70
2017-11-17T23:50:08.929Z,62.58
2017-11-17T23:52:37.298Z,62.45
2017-11-17T23:55:05.593Z,62.58
2017-11-17T23:57:34.047Z,62.68
